createdAt,value
2023-03-28T00:01:53.003Z,98795.85
2023-03-28T00:07:57.803Z,98790.09
2023-03-28T00:14:07.590Z,98794.24
2023-03-28T00:20:19.137Z,98789.43
2023-03-28T00:26:28.769Z,98782.96
2023-03-28T00:32:30.789Z,98787.63
2023-03-28T00:38:38.330Z,98793.07
2023-03-28T00:44:54.781Z,98800.14
2023-03-28T00:51:03.256Z,98805.40
2023-03-28T00:57:15.854Z,98803.13
2023-03-28T01:03:27.274Z,98806.10
2023-03-28T01:09:30.002Z,98806.02
2023-03-28T01:15:33.533Z,98805.20
2023-03-28T01:21:36.272Z,98801.71
2023-03-28T01:36:34.038Z,98796.23
2023-03-28T01:43:02.610Z,98796.29
2023-03-28T01:49:08.842Z,98791.31
2023-03-28T01:55:13.913Z,98805.40
2023-03-28T02:01:27.033Z,98815.70
2023-03-28T02:07:33.139Z,98809.42
2023-03-28T02:14:06.522Z,98807.08
2023-03-28T02:20:32.936Z,98807.61
2023-03-28T02:26:47.767Z,98807.84
2023-03-28T02:33:07.991Z,98808.02
2023-03-28T02:39:30.228Z,98796.36
2023-03-28T02:46:03.861Z,98794.76
2023-03-28T02:52:22.918Z,98792.91
2023-03-28T02:58:40.169Z,98795.16
2023-03-28T03:04:41.664Z,98798.45
2023-03-28T03:10:43.250Z,98800.50
2023-03-28T03:16:48.193Z,98799.23
2023-03-28T03:23:00.133Z,98795.80
2023-03-28T03:29:05.894Z,98799.88
2023-03-28T03:35:07.869Z,98794.39
2023-03-28T03:41:09.363Z,98785.05
2023-03-28T03:47:10.979Z,98784.15
2023-03-28T03:53:12.522Z,98782.05
2023-03-28T03:59:28.783Z,98774.56
2023-03-28T04:05:30.720Z,98779.14
2023-03-28T04:11:44.627Z,98786.11
2023-03-28T04:17:49.501Z,98787.16
2023-03-28T04:23:54.010Z,98784.20
2023-03-28T04:30:06.763Z,98790.00
2023-03-28T04:36:29.038Z,98793.63
2023-03-28T04:42:36.801Z,98780.00
2023-03-28T04:48:49.657Z,98780.55
2023-03-28T04:55:01.335Z,98783.09
2023-03-28T05:01:03.465Z,98783.09
2023-03-28T05:07:25.697Z,98785.27
2023-03-28T05:13:27.522Z,98783.35
2023-03-28T05:19:39.164Z,98788.61
2023-03-28T05:25:52.095Z,98787.47
2023-03-28T05:31:54.411Z,98779.69
2023-03-28T05:38:05.640Z,98776.39
2023-03-28T05:44:07.541Z,98777.23
2023-03-28T05:50:30.762Z,98779.00
2023-03-28T05:56:37.200Z,98785.78
2023-03-28T06:02:39.636Z,98797.98
2023-03-28T06:08:41.312Z,98807.04
2023-03-28T06:14:43.744Z,98810.10
2023-03-28T06:20:55.283Z,98815.20
2023-03-28T06:26:57.839Z,98824.55
2023-03-28T06:32:59.991Z,98824.83
2023-03-28T06:39:01.941Z,98825.77
2023-03-28T06:45:05.325Z,98833.05
2023-03-28T06:51:41.376Z,98840.33
2023-03-28T06:57:43.364Z,98841.31
2023-03-28T07:04:01.425Z,98844.36
2023-03-28T07:10:03.968Z,98847.77
2023-03-28T07:16:15.891Z,98854.31
2023-03-28T07:22:17.803Z,98852.84
2023-03-28T07:28:19.942Z,98842.59
2023-03-28T07:34:21.505Z,98844.95
2023-03-28T07:40:23.859Z,98850.96
2023-03-28T07:46:25.709Z,98848.41
2023-03-28T07:52:28.256Z,98869.49
2023-03-28T07:58:29.879Z,98886.23
2023-03-28T08:04:34.252Z,98904.94
2023-03-28T08:10:40.436Z,98916.45
2023-03-28T08:16:43.716Z,98921.14
2023-03-28T08:22:45.829Z,98923.46
2023-03-28T08:29:10.817Z,98919.95
2023-03-28T08:35:13.324Z,98922.88
2023-03-28T08:41:32.032Z,98937.56
2023-03-28T08:47:43.108Z,98950.96
2023-03-28T08:53:51.006Z,98966.03
2023-03-28T09:00:09.578Z,98982.15
2023-03-28T09:06:28.116Z,98991.05
2023-03-28T09:12:51.447Z,98995.72
2023-03-28T09:19:14.789Z,99018.44
2023-03-28T09:25:21.207Z,99028.14
2023-03-28T09:31:27.285Z,99050.56
2023-03-28T09:37:41.305Z,99051.73
2023-03-28T09:43:58.007Z,99072.77
2023-03-28T09:50:15.789Z,99060.05
2023-03-28T09:56:38.951Z,99066.45
2023-03-28T10:02:52.200Z,99067.79
2023-03-28T10:09:19.054Z,99083.87
2023-03-28T10:15:38.602Z,99083.77
2023-03-28T10:22:02.534Z,99070.41
2023-03-28T10:28:14.134Z,99087.31
2023-03-28T10:34:28.433Z,99086.65
2023-03-28T10:40:37.462Z,99096.98
2023-03-28T10:46:45.374Z,99087.66
2023-03-28T10:52:59.792Z,99095.12
2023-03-28T10:59:19.876Z,99111.85
2023-03-28T11:05:37.064Z,99123.72
2023-03-28T11:12:28.643Z,99119.41
2023-03-28T11:18:47.840Z,99122.86
2023-03-28T11:25:23.392Z,99121.21
2023-03-28T11:32:30.132Z,99122.36
2023-03-28T11:38:42.327Z,99109.40
2023-03-28T11:44:53.614Z,99124.09
2023-03-28T11:51:05.811Z,99136.76
2023-03-28T11:57:24.188Z,99145.66
2023-03-28T12:03:58.283Z,99143.05
2023-03-28T12:10:06.343Z,99146.51
2023-03-28T12:16:16.037Z,99142.18
2023-03-28T12:22:32.091Z,99139.33
2023-03-28T12:28:42.894Z,99123.84
2023-03-28T12:34:53.078Z,99125.73
2023-03-28T12:41:05.882Z,99142.70
2023-03-28T12:47:24.003Z,99148.26
2023-03-28T12:53:30.813Z,99165.64
2023-03-28T12:59:43.676Z,99164.25
2023-03-28T13:06:02.004Z,99163.40
2023-03-28T13:12:23.583Z,99185.69
2023-03-28T13:18:29.078Z,99232.55
2023-03-28T13:24:32.867Z,99220.50
2023-03-28T13:30:34.299Z,99221.73
2023-03-28T13:36:35.875Z,99195.70
2023-03-28T13:42:37.411Z,99190.57
2023-03-28T13:49:19.223Z,99194.55
2023-03-28T13:55:23.598Z,99210.36
2023-03-28T14:01:33.858Z,99250.00
2023-03-28T14:07:35.483Z,39716.69
2023-03-28T14:13:37.199Z,-1.00
2023-03-28T14:19:59.522Z,-1.00
2023-03-28T14:26:02.660Z,-1.00
2023-03-28T14:32:54.463Z,-1.00
2023-03-28T14:39:11.787Z,-1.00
2023-03-28T14:45:17.105Z,-1.00
2023-03-28T14:51:21.882Z,-1.00
2023-03-28T14:57:25.582Z,-1.00
2023-03-28T15:03:33.180Z,-1.00
2023-03-28T15:09:35.418Z,-1.00
2023-03-28T15:15:45.349Z,-1.00
2023-03-28T15:21:58.278Z,-1.00
2023-03-28T15:28:03.062Z,-1.00
2023-03-28T15:34:10.285Z,-1.00
2023-03-28T15:40:17.751Z,-1.00
2023-03-28T15:46:29.189Z,-1.00
2023-03-28T15:52:31.291Z,-1.00
2023-03-28T15:58:33.953Z,-1.00
2023-03-28T16:04:35.844Z,-1.00
2023-03-28T16:10:37.352Z,-1.00
2023-03-28T16:16:57.658Z,-1.00
2023-03-28T16:23:12.524Z,-1.00
2023-03-28T16:29:14.191Z,-1.00
2023-03-28T16:35:15.779Z,-1.00
2023-03-28T16:41:17.525Z,-1.00
2023-03-28T16:47:19.271Z,-1.00
2023-03-28T16:53:23.263Z,-1.00
2023-03-28T16:59:25.055Z,-1.00
2023-03-28T17:05:29.947Z,-1.00
2023-03-28T17:11:32.414Z,-1.00
2023-03-28T17:17:39.257Z,-1.00
2023-03-28T17:23:41.444Z,-1.00
2023-03-28T17:29:43.318Z,-1.00
2023-03-28T17:35:45.415Z,-1.00
2023-03-28T17:41:47.088Z,-1.00
2023-03-28T17:47:53.414Z,-1.00
2023-03-28T17:53:55.347Z,-1.00
2023-03-28T17:59:57.129Z,-1.00
2023-03-28T18:06:01.761Z,-1.00
2023-03-28T18:12:03.570Z,-1.00
2023-03-28T18:18:05.528Z,-1.00
2023-03-28T18:24:07.301Z,-1.00
2023-03-28T18:30:09.717Z,-1.00
2023-03-28T18:36:12.517Z,-1.00
2023-03-28T18:42:14.704Z,-1.00
2023-03-28T18:48:17.727Z,-1.00
2023-03-28T18:54:21.045Z,-1.00
2023-03-28T19:00:23.130Z,-1.00
2023-03-28T19:06:24.992Z,-1.00
2023-03-28T19:12:26.672Z,-1.00
2023-03-28T19:18:32.764Z,-1.00
2023-03-28T19:24:37.633Z,-1.00
2023-03-28T19:30:39.465Z,-1.00
2023-03-28T19:36:49.644Z,-1.00
2023-03-28T19:42:57.705Z,-1.00
2023-03-28T19:49:01.176Z,-1.00
2023-03-28T19:55:03.652Z,-1.00
2023-03-28T20:01:07.563Z,-1.00
2023-03-28T20:07:09.330Z,-1.00
2023-03-28T20:13:12.827Z,-1.00
2023-03-28T20:19:17.266Z,-1.00
2023-03-28T20:25:19.337Z,79736.18
2023-03-28T20:31:21.826Z,99667.64
2023-03-28T20:37:29.406Z,99671.86
2023-03-28T20:43:40.084Z,99673.11
2023-03-28T20:49:45.540Z,99665.73
2023-03-28T20:56:04.169Z,99670.08
2023-03-28T21:02:10.163Z,99687.69
2023-03-28T21:08:15.077Z,99684.42
2023-03-28T21:14:17.412Z,99685.95
2023-03-28T21:20:19.187Z,99688.05
2023-03-28T21:26:22.217Z,99690.79
2023-03-28T21:32:27.593Z,99700.02
2023-03-28T21:38:35.506Z,99707.30
2023-03-28T21:44:37.553Z,99708.20
2023-03-28T21:50:47.888Z,99706.04
2023-03-28T21:56:58.379Z,99708.48
2023-03-28T22:03:00.420Z,99710.05
2023-03-28T22:09:04.337Z,99709.83
2023-03-28T22:15:07.105Z,99712.27
2023-03-28T22:21:13.212Z,99722.91
2023-03-28T22:27:14.722Z,99725.44
2023-03-28T22:33:16.182Z,99725.52
2023-03-28T22:39:21.095Z,99722.93
2023-03-28T22:45:23.844Z,99725.41
2023-03-28T22:51:26.937Z,99729.13
2023-03-28T22:57:28.387Z,99728.69
2023-03-28T23:03:30.375Z,99736.24
2023-03-28T23:09:32.300Z,99742.59
2023-03-28T23:15:34.411Z,99745.02
2023-03-28T23:21:36.271Z,99743.83
2023-03-28T23:27:38.480Z,99741.01
2023-03-28T23:33:40.281Z,99749.89
2023-03-28T23:39:41.928Z,99752.83
2023-03-28T23:45:44.089Z,99760.14
2023-03-28T23:51:45.823Z,99761.36
2023-03-28T23:57:47.391Z,99763.84
